sensor_id;sensor_type;location;lat;lon;timestamp;pressure;altitude;pressure_sealevel;temperature;humidity
13869;BME280;7004;48.206;16.402;2023-02-15T00:01:56;101472.44;;;6.18;62.26
13869;BME280;7004;48.206;16.402;2023-02-15T00:04:24;101459.97;;;6.29;61.81
13869;BME280;7004;48.206;16.402;2023-02-15T00:07:11;101462.31;;;6.45;60.44
13869;BME280;7004;48.206;16.402;2023-02-15T00:09:37;101464.16;;;6.38;60.74
13869;BME280;7004;48.206;16.402;2023-02-15T00:12:03;101459.16;;;6.26;62.26
13869;BME280;7004;48.206;16.402;2023-02-15T00:14:30;101462.78;;;5.63;63.51
13869;BME280;7004;48.206;16.402;2023-02-15T00:16:56;101458.84;;;5.91;62.88
13869;BME280;7004;48.206;16.402;2023-02-15T00:19:25;101453.47;;;5.99;63.07
13869;BME280;7004;48.206;16.402;2023-02-15T00:21:51;101452.81;;;5.85;63.08
13869;BME280;7004;48.206;16.402;2023-02-15T00:24:19;101454.44;;;5.94;62.91
13869;BME280;7004;48.206;16.402;2023-02-15T00:26:47;101451.84;;;5.90;63.06
13869;BME280;7004;48.206;16.402;2023-02-15T00:29:15;101455.94;;;6.10;63.45
13869;BME280;7004;48.206;16.402;2023-02-15T00:31:42;101450.09;;;5.94;62.76
13869;BME280;7004;48.206;16.402;2023-02-15T00:34:18;101451.06;;;5.85;63.05
13869;BME280;7004;48.206;16.402;2023-02-15T00:36:45;101451.81;;;5.94;63.00
13869;BME280;7004;48.206;16.402;2023-02-15T00:39:12;101453.25;;;6.13;62.00
13869;BME280;7004;48.206;16.402;2023-02-15T00:41:38;101456.50;;;6.27;61.44
13869;BME280;7004;48.206;16.402;2023-02-15T00:44:05;101450.94;;;5.93;62.50
13869;BME280;7004;48.206;16.402;2023-02-15T00:46:32;101454.38;;;6.00;62.33
13869;BME280;7004;48.206;16.402;2023-02-15T00:48:58;101447.69;;;5.77;63.81
13869;BME280;7004;48.206;16.402;2023-02-15T00:51:25;101450.50;;;5.66;63.90
13869;BME280;7004;48.206;16.402;2023-02-15T00:53:51;101448.16;;;5.46;64.76
13869;BME280;7004;48.206;16.402;2023-02-15T00:56:18;101447.41;;;5.97;63.08
13869;BME280;7004;48.206;16.402;2023-02-15T00:58:44;101443.13;;;5.88;63.68
13869;BME280;7004;48.206;16.402;2023-02-15T01:01:17;101442.47;;;5.76;64.49
13869;BME280;7004;48.206;16.402;2023-02-15T01:03:49;101443.97;;;5.90;64.20
13869;BME280;7004;48.206;16.402;2023-02-15T01:06:17;101432.53;;;5.96;63.13
13869;BME280;7004;48.206;16.402;2023-02-15T01:08:48;101430.09;;;5.84;62.68
13869;BME280;7004;48.206;16.402;2023-02-15T01:11:22;101426.72;;;5.76;62.84
13869;BME280;7004;48.206;16.402;2023-02-15T01:13:55;101422.88;;;5.98;62.25
13869;BME280;7004;48.206;16.402;2023-02-15T01:16:27;101427.38;;;5.88;63.10
13869;BME280;7004;48.206;16.402;2023-02-15T01:19:01;101421.81;;;6.08;62.08
13869;BME280;7004;48.206;16.402;2023-02-15T01:21:31;101420.06;;;6.09;62.55
13869;BME280;7004;48.206;16.402;2023-02-15T01:24:02;101412.38;;;5.98;62.75
13869;BME280;7004;48.206;16.402;2023-02-15T01:26:33;101415.94;;;5.93;62.50
13869;BME280;7004;48.206;16.402;2023-02-15T01:29:07;101409.19;;;5.79;63.66
13869;BME280;7004;48.206;16.402;2023-02-15T01:31:34;101404.91;;;5.72;63.80
13869;BME280;7004;48.206;16.402;2023-02-15T01:34:07;101406.63;;;5.76;64.55
13869;BME280;7004;48.206;16.402;2023-02-15T01:36:38;101402.59;;;5.55;63.93
13869;BME280;7004;48.206;16.402;2023-02-15T01:39:11;101398.50;;;5.88;62.02
13869;BME280;7004;48.206;16.402;2023-02-15T01:41:40;101393.94;;;6.01;61.92
13869;BME280;7004;48.206;16.402;2023-02-15T01:44:55;101397.34;;;6.08;62.55
13869;BME280;7004;48.206;16.402;2023-02-15T01:47:59;101399.00;;;5.59;64.16
13869;BME280;7004;48.206;16.402;2023-02-15T01:50:36;101396.31;;;5.64;64.93
13869;BME280;7004;48.206;16.402;2023-02-15T01:53:38;101393.53;;;5.73;64.32
13869;BME280;7004;48.206;16.402;2023-02-15T01:56:17;101397.47;;;5.99;63.14
13869;BME280;7004;48.206;16.402;2023-02-15T01:58:45;101384.34;;;5.46;65.54
13869;BME280;7004;48.206;16.402;2023-02-15T02:01:12;101383.19;;;5.64;65.23
13869;BME280;7004;48.206;16.402;2023-02-15T02:04:24;101383.25;;;5.59;64.31
13869;BME280;7004;48.206;16.402;2023-02-15T02:06:59;101377.34;;;5.48;65.47
13869;BME280;7004;48.206;16.402;2023-02-15T02:09:26;101383.44;;;6.01;62.70
13869;BME280;7004;48.206;16.402;2023-02-15T02:11:54;101379.34;;;5.83;63.51
13869;BME280;7004;48.206;16.402;2023-02-15T02:14:21;101369.81;;;5.78;63.63
13869;BME280;7004;48.206;16.402;2023-02-15T02:20:39;101374.66;;;5.53;64.55
13869;BME280;7004;48.206;16.402;2023-02-15T02:26:45;101368.81;;;5.34;64.81
13869;BME280;7004;48.206;16.402;2023-02-15T02:32:34;101358.44;;;5.28;65.28
13869;BME280;7004;48.206;16.402;2023-02-15T02:35:17;101347.94;;;5.28;64.78
13869;BME280;7004;48.206;16.402;2023-02-15T02:40:48;101354.31;;;5.11;65.61
13869;BME280;7004;48.206;16.402;2023-02-15T02:46:19;101347.16;;;5.21;64.97
13869;BME280;7004;48.206;16.402;2023-02-15T02:48:48;101346.28;;;5.22;64.60
13869;BME280;7004;48.206;16.402;2023-02-15T02:51:15;101344.69;;;5.12;65.62
13869;BME280;7004;48.206;16.402;2023-02-15T02:53:53;101337.56;;;5.21;65.80
13869;BME280;7004;48.206;16.402;2023-02-15T02:56:42;101350.00;;;5.06;66.51
13869;BME280;7004;48.206;16.402;2023-02-15T02:59:20;101344.75;;;5.09;66.36
13869;BME280;7004;48.206;16.402;2023-02-15T03:02:04;101334.78;;;5.29;65.45
13869;BME280;7004;48.206;16.402;2023-02-15T03:04:41;101338.41;;;5.20;65.13
13869;BME280;7004;48.206;16.402;2023-02-15T03:07:19;101345.47;;;5.17;65.92
13869;BME280;7004;48.206;16.402;2023-02-15T03:09:52;101332.25;;;5.23;65.13
13869;BME280;7004;48.206;16.402;2023-02-15T03:12:45;101335.06;;;5.14;65.19
13869;BME280;7004;48.206;16.402;2023-02-15T03:15:37;101335.06;;;5.14;65.25
13869;BME280;7004;48.206;16.402;2023-02-15T03:18:30;101336.81;;;5.12;64.89
13869;BME280;7004;48.206;16.402;2023-02-15T03:20:59;101335.91;;;5.13;65.27
13869;BME280;7004;48.206;16.402;2023-02-15T03:23:31;101335.19;;;5.03;65.76
13869;BME280;7004;48.206;16.402;2023-02-15T03:26:03;101338.13;;;5.39;64.78
13869;BME280;7004;48.206;16.402;2023-02-15T03:28:39;101333.97;;;5.25;65.33
13869;BME280;7004;48.206;16.402;2023-02-15T03:31:09;101331.41;;;5.22;64.92
13869;BME280;7004;48.206;16.402;2023-02-15T03:33:47;101333.25;;;5.16;65.70
13869;BME280;7004;48.206;16.402;2023-02-15T03:42:17;101337.28;;;5.37;64.22
13869;BME280;7004;48.206;16.402;2023-02-15T03:45:09;101336.09;;;5.58;63.34
13869;BME280;7004;48.206;16.402;2023-02-15T03:47:46;101329.88;;;5.62;63.03
13869;BME280;7004;48.206;16.402;2023-02-15T03:50:22;101338.03;;;5.45;63.34
13869;BME280;7004;48.206;16.402;2023-02-15T03:53:11;101331.66;;;5.60;62.42
13869;BME280;7004;48.206;16.402;2023-02-15T03:55:40;101343.72;;;5.72;62.57
13869;BME280;7004;48.206;16.402;2023-02-15T03:58:06;101333.41;;;5.59;62.79
13869;BME280;7004;48.206;16.402;2023-02-15T04:01:03;101332.09;;;5.86;62.17
13869;BME280;7004;48.206;16.402;2023-02-15T04:03:59;101331.78;;;5.54;62.44
13869;BME280;7004;48.206;16.402;2023-02-15T04:06:27;101332.38;;;5.69;62.76
13869;BME280;7004;48.206;16.402;2023-02-15T04:08:53;101337.53;;;5.74;62.18
13869;BME280;7004;48.206;16.402;2023-02-15T04:11:38;101336.72;;;5.70;62.70
13869;BME280;7004;48.206;16.402;2023-02-15T04:14:04;101334.66;;;5.37;64.09
13869;BME280;7004;48.206;16.402;2023-02-15T04:16:50;101337.44;;;5.28;64.72
13869;BME280;7004;48.206;16.402;2023-02-15T04:19:16;101339.38;;;5.15;65.11
13869;BME280;7004;48.206;16.402;2023-02-15T04:22:02;101339.44;;;5.10;64.92
13869;BME280;7004;48.206;16.402;2023-02-15T04:24:47;101336.22;;;5.50;63.11
13869;BME280;7004;48.206;16.402;2023-02-15T04:27:32;101337.13;;;5.47;63.87
13869;BME280;7004;48.206;16.402;2023-02-15T04:29:59;101330.44;;;5.30;64.02
13869;BME280;7004;48.206;16.402;2023-02-15T04:32:25;101324.03;;;5.46;63.59
13869;BME280;7004;48.206;16.402;2023-02-15T04:34:51;101330.06;;;5.51;63.48
13869;BME280;7004;48.206;16.402;2023-02-15T04:37:17;101322.50;;;5.33;64.21
13869;BME280;7004;48.206;16.402;2023-02-15T04:39:43;101322.50;;;5.33;64.88
13869;BME280;7004;48.206;16.402;2023-02-15T04:42:09;101325.19;;;5.28;64.76
13869;BME280;7004;48.206;16.402;2023-02-15T04:44:36;101325.09;;;5.34;65.65
13869;BME280;7004;48.206;16.402;2023-02-15T04:47:02;101327.13;;;5.17;65.76
13869;BME280;7004;48.206;16.402;2023-02-15T04:49:28;101327.72;;;5.34;65.60
13869;BME280;7004;48.206;16.402;2023-02-15T04:51:54;101326.09;;;5.27;65.96
13869;BME280;7004;48.206;16.402;2023-02-15T04:54:20;101334.94;;;5.20;65.22
13869;BME280;7004;48.206;16.402;2023-02-15T04:56:46;101327.13;;;5.17;65.60
13869;BME280;7004;48.206;16.402;2023-02-15T04:59:13;101323.66;;;5.16;66.36
13869;BME280;7004;48.206;16.402;2023-02-15T05:01:39;101331.22;;;5.33;64.99
13869;BME280;7004;48.206;16.402;2023-02-15T05:04:05;101329.69;;;5.20;65.48
13869;BME280;7004;48.206;16.402;2023-02-15T05:06:32;101331.41;;;5.21;65.41
13869;BME280;7004;48.206;16.402;2023-02-15T05:08:58;101330.75;;;5.08;65.14
13869;BME280;7004;48.206;16.402;2023-02-15T05:11:27;101331.56;;;5.12;65.18
13869;BME280;7004;48.206;16.402;2023-02-15T05:13:53;101329.19;;;4.96;66.11
13869;BME280;7004;48.206;16.402;2023-02-15T05:16:19;101325.13;;;4.75;66.34
13869;BME280;7004;48.206;16.402;2023-02-15T05:18:45;101325.38;;;5.16;65.51
13869;BME280;7004;48.206;16.402;2023-02-15T05:21:12;101328.00;;;5.17;65.08
13869;BME280;7004;48.206;16.402;2023-02-15T05:23:39;101327.03;;;5.23;65.77
13869;BME280;7004;48.206;16.402;2023-02-15T05:26:05;101331.53;;;5.16;65.09
13869;BME280;7004;48.206;16.402;2023-02-15T05:28:50;101330.31;;;5.37;64.08
13869;BME280;7004;48.206;16.402;2023-02-15T05:31:18;101330.44;;;5.30;65.21
13869;BME280;7004;48.206;16.402;2023-02-15T05:33:45;101338.59;;;5.10;66.51
13869;BME280;7004;48.206;16.402;2023-02-15T05:36:11;101333.81;;;5.36;66.04
13869;BME280;7004;48.206;16.402;2023-02-15T05:38:38;101339.41;;;5.13;65.81
13869;BME280;7004;48.206;16.402;2023-02-15T05:41:06;101330.91;;;4.97;66.62
13869;BME280;7004;48.206;16.402;2023-02-15T05:43:32;101337.38;;;4.73;66.54
13869;BME280;7004;48.206;16.402;2023-02-15T05:46:00;101339.34;;;5.18;65.75
13869;BME280;7004;48.206;16.402;2023-02-15T05:48:27;101337.41;;;4.70;66.89
13869;BME280;7004;48.206;16.402;2023-02-15T05:51:02;101346.47;;;4.43;68.48
13869;BME280;7004;48.206;16.402;2023-02-15T05:53:31;101338.16;;;4.80;66.92
13869;BME280;7004;48.206;16.402;2023-02-15T05:55:58;101344.56;;;5.19;65.37
13869;BME280;7004;48.206;16.402;2023-02-15T05:58:27;101339.75;;;5.46;64.98
13869;BME280;7004;48.206;16.402;2023-02-15T06:00:53;101341.59;;;5.41;65.76
13869;BME280;7004;48.206;16.402;2023-02-15T06:03:20;101343.31;;;5.43;65.36
13869;BME280;7004;48.206;16.402;2023-02-15T06:05:47;101346.72;;;5.48;64.99
13869;BME280;7004;48.206;16.402;2023-02-15T06:08:13;101345.88;;;5.48;64.20
13869;BME280;7004;48.206;16.402;2023-02-15T06:10:40;101351.91;;;5.52;64.62
13869;BME280;7004;48.206;16.402;2023-02-15T06:13:06;101353.66;;;5.53;64.46
13869;BME280;7004;48.206;16.402;2023-02-15T06:15:33;101349.81;;;5.19;64.72
13869;BME280;7004;48.206;16.402;2023-02-15T06:17:59;101347.16;;;5.21;64.93
13869;BME280;7004;48.206;16.402;2023-02-15T06:20:26;101354.16;;;5.22;65.09
13869;BME280;7004;48.206;16.402;2023-02-15T06:22:52;101352.88;;;4.87;66.89
13869;BME280;7004;48.206;16.402;2023-02-15T06:25:18;101358.47;;;5.23;65.22
13869;BME280;7004;48.206;16.402;2023-02-15T06:27:44;101357.84;;;5.09;65.36
13869;BME280;7004;48.206;16.402;2023-02-15T06:30:11;101355.50;;;5.46;64.64
13869;BME280;7004;48.206;16.402;2023-02-15T06:32:38;101359.66;;;5.59;64.61
13869;BME280;7004;48.206;16.402;2023-02-15T06:35:04;101363.50;;;5.37;64.45
13869;BME280;7004;48.206;16.402;2023-02-15T06:37:33;101361.78;;;5.37;64.52
13869;BME280;7004;48.206;16.402;2023-02-15T06:39:59;101355.81;;;5.28;65.45
13869;BME280;7004;48.206;16.402;2023-02-15T06:42:25;101353.97;;;5.31;65.18
13869;BME280;7004;48.206;16.402;2023-02-15T06:44:52;101365.47;;;5.24;64.38
13869;BME280;7004;48.206;16.402;2023-02-15T06:47:19;101358.94;;;5.50;64.09
13869;BME280;7004;48.206;16.402;2023-02-15T06:49:45;101356.47;;;5.39;64.55
13869;BME280;7004;48.206;16.402;2023-02-15T06:52:11;101354.47;;;4.99;66.72
13869;BME280;7004;48.206;16.402;2023-02-15T06:54:37;101356.81;;;5.19;65.27
13869;BME280;7004;48.206;16.402;2023-02-15T06:57:03;101349.94;;;4.45;67.89
13869;BME280;7004;48.206;16.402;2023-02-15T06:59:30;101356.31;;;4.94;66.37
13869;BME280;7004;48.206;16.402;2023-02-15T07:01:56;101350.38;;;4.79;66.31
13869;BME280;7004;48.206;16.402;2023-02-15T07:04:23;101356.81;;;4.54;67.52
13869;BME280;7004;48.206;16.402;2023-02-15T07:06:49;101353.69;;;4.26;68.48
13869;BME280;7004;48.206;16.402;2023-02-15T07:09:16;101353.88;;;4.78;67.48
13869;BME280;7004;48.206;16.402;2023-02-15T07:11:42;101354.72;;;4.09;68.64
13869;BME280;7004;48.206;16.402;2023-02-15T07:14:27;101344.91;;;4.30;68.90
13869;BME280;7004;48.206;16.402;2023-02-15T07:16:53;101352.69;;;4.34;68.42
13869;BME280;7004;48.206;16.402;2023-02-15T07:19:19;101348.00;;;4.61;68.02
13869;BME280;7004;48.206;16.402;2023-02-15T07:21:45;101346.13;;;4.71;66.62
13869;BME280;7004;48.206;16.402;2023-02-15T07:24:11;101348.84;;;4.65;67.34
13869;BME280;7004;48.206;16.402;2023-02-15T07:26:38;101351.88;;;4.31;69.61
13869;BME280;7004;48.206;16.402;2023-02-15T07:29:04;101342.72;;;4.64;67.50
13869;BME280;7004;48.206;16.402;2023-02-15T07:31:30;101342.59;;;4.75;67.67
13869;BME280;7004;48.206;16.402;2023-02-15T07:33:56;101341.09;;;4.54;68.87
13869;BME280;7004;48.206;16.402;2023-02-15T07:36:22;101346.47;;;4.46;68.96
13869;BME280;7004;48.206;16.402;2023-02-15T07:38:49;101346.63;;;4.99;67.95
13869;BME280;7004;48.206;16.402;2023-02-15T07:41:15;101353.28;;;4.56;69.21
13869;BME280;7004;48.206;16.402;2023-02-15T07:43:44;101346.88;;;4.79;68.71
13869;BME280;7004;48.206;16.402;2023-02-15T07:46:13;101349.22;;;4.34;69.77
13869;BME280;7004;48.206;16.402;2023-02-15T07:48:41;101354.69;;;4.84;68.52
13869;BME280;7004;48.206;16.402;2023-02-15T07:51:09;101349.28;;;4.28;70.41
13869;BME280;7004;48.206;16.402;2023-02-15T07:53:37;101353.56;;;4.36;70.32
13869;BME280;7004;48.206;16.402;2023-02-15T07:56:08;101358.84;;;4.33;70.55
13869;BME280;7004;48.206;16.402;2023-02-15T07:58:35;101351.47;;;4.62;69.66
13869;BME280;7004;48.206;16.402;2023-02-15T08:01:24;101355.13;;;4.50;69.32
13869;BME280;7004;48.206;16.402;2023-02-15T08:03:52;101359.59;;;4.42;70.22
13869;BME280;7004;48.206;16.402;2023-02-15T08:06:19;101357.91;;;4.37;70.45
13869;BME280;7004;48.206;16.402;2023-02-15T08:08:46;101358.81;;;5.00;68.21
13869;BME280;7004;48.206;16.402;2023-02-15T08:14:06;101362.81;;;5.27;65.84
13869;BME280;7004;48.206;16.402;2023-02-15T08:16:40;101354.31;;;5.10;66.15
13869;BME280;7004;48.206;16.402;2023-02-15T08:21:52;101355.53;;;4.86;68.18
13869;BME280;7004;48.206;16.402;2023-02-15T08:24:21;101358.97;;;4.20;71.11
13869;BME280;7004;48.206;16.402;2023-02-15T08:26:48;101345.88;;;4.89;69.13
13869;BME280;7004;48.206;16.402;2023-02-15T08:29:17;101350.78;;;5.14;67.70
13869;BME280;7004;48.206;16.402;2023-02-15T08:31:44;101356.34;;;4.91;68.53
13869;BME280;7004;48.206;16.402;2023-02-15T08:34:15;101353.19;;;4.67;69.25
13869;BME280;7004;48.206;16.402;2023-02-15T08:36:42;101350.84;;;4.44;70.59
13869;BME280;7004;48.206;16.402;2023-02-15T08:39:11;101347.69;;;4.84;69.72
13869;BME280;7004;48.206;16.402;2023-02-15T08:41:39;101347.69;;;4.86;68.87
13869;BME280;7004;48.206;16.402;2023-02-15T08:44:08;101348.44;;;4.94;68.69
13869;BME280;7004;48.206;16.402;2023-02-15T08:46:37;101352.56;;;4.47;70.73
13869;BME280;7004;48.206;16.402;2023-02-15T08:49:04;101342.41;;;4.87;69.86
13869;BME280;7004;48.206;16.402;2023-02-15T08:51:34;101344.16;;;4.87;69.19
13869;BME280;7004;48.206;16.402;2023-02-15T08:54:07;101344.91;;;4.95;67.94
13869;BME280;7004;48.206;16.402;2023-02-15T08:56:38;101344.84;;;5.01;68.38
13869;BME280;7004;48.206;16.402;2023-02-15T08:59:05;101348.00;;;3.85;71.41
13869;BME280;7004;48.206;16.402;2023-02-15T09:01:34;101345.06;;;4.16;70.91
13869;BME280;7004;48.206;16.402;2023-02-15T09:04:04;101351.28;;;4.77;69.43
13869;BME280;7004;48.206;16.402;2023-02-15T09:06:32;101348.69;;;4.74;68.69
13869;BME280;7004;48.206;16.402;2023-02-15T09:08:58;101335.41;;;4.88;67.48
13869;BME280;7004;48.206;16.402;2023-02-15T09:11:27;101344.38;;;4.71;68.49
13869;BME280;7004;48.206;16.402;2023-02-15T09:13:57;101343.97;;;5.00;67.43
13869;BME280;7004;48.206;16.402;2023-02-15T09:16:28;101344.75;;;5.09;67.92
13869;BME280;7004;48.206;16.402;2023-02-15T09:18:55;101342.31;;;5.51;66.38
13869;BME280;7004;48.206;16.402;2023-02-15T09:21:25;101350.00;;;5.07;67.30
13869;BME280;7004;48.206;16.402;2023-02-15T09:23:57;101340.91;;;5.30;66.36
13869;BME280;7004;48.206;16.402;2023-02-15T09:26:24;101336.09;;;5.00;67.16
13869;BME280;7004;48.206;16.402;2023-02-15T09:28:57;101349.81;;;4.57;68.46
13869;BME280;7004;48.206;16.402;2023-02-15T09:31:31;101336.91;;;4.41;70.01
13869;BME280;7004;48.206;16.402;2023-02-15T09:33:59;101338.09;;;4.13;70.31
13869;BME280;7004;48.206;16.402;2023-02-15T09:36:35;101342.19;;;4.37;69.56
13869;BME280;7004;48.206;16.402;2023-02-15T09:50:53;101336.94;;;5.04;67.44
13869;BME280;7004;48.206;16.402;2023-02-15T09:56:49;101333.81;;;5.86;64.75
13869;BME280;7004;48.206;16.402;2023-02-15T10:03:08;101323.31;;;5.36;66.39
13869;BME280;7004;48.206;16.402;2023-02-15T10:17:27;101322.25;;;5.46;65.04
13869;BME280;7004;48.206;16.402;2023-02-15T10:28:17;101317.53;;;5.67;64.23
13869;BME280;7004;48.206;16.402;2023-02-15T10:30:51;101316.50;;;5.77;64.52
13869;BME280;7004;48.206;16.402;2023-02-15T10:33:39;101315.78;;;5.67;63.78
13869;BME280;7004;48.206;16.402;2023-02-15T10:39:32;101308.34;;;6.38;62.20
13869;BME280;7004;48.206;16.402;2023-02-15T10:42:47;101308.16;;;6.02;64.14
13869;BME280;7004;48.206;16.402;2023-02-15T10:50:59;101296.88;;;6.00;62.34
13869;BME280;7004;48.206;16.402;2023-02-15T10:59:20;101281.91;;;6.03;62.96
13869;BME280;7004;48.206;16.402;2023-02-15T11:05:58;101265.28;;;6.46;61.94
13869;BME280;7004;48.206;16.402;2023-02-15T11:08:32;101258.66;;;6.28;61.52
13869;BME280;7004;48.206;16.402;2023-02-15T11:11:07;101264.22;;;5.66;63.92
13869;BME280;7004;48.206;16.402;2023-02-15T11:13:40;101265.28;;;6.03;61.69
13869;BME280;7004;48.206;16.402;2023-02-15T11:16:31;101262.75;;;6.00;62.72
13869;BME280;7004;48.206;16.402;2023-02-15T11:21:44;101254.63;;;6.10;62.94
13869;BME280;7004;48.206;16.402;2023-02-15T11:24:14;101256.56;;;6.01;63.65
13869;BME280;7004;48.206;16.402;2023-02-15T11:26:53;101249.63;;;5.98;63.52
13869;BME280;7004;48.206;16.402;2023-02-15T11:29:41;101260.03;;;5.55;65.64
13869;BME280;7004;48.206;16.402;2023-02-15T11:35:10;101255.59;;;6.06;62.89
13869;BME280;7004;48.206;16.402;2023-02-15T11:40:23;101248.97;;;5.87;64.34
13869;BME280;7004;48.206;16.402;2023-02-15T11:42:55;101245.56;;;5.80;65.25
13869;BME280;7004;48.206;16.402;2023-02-15T11:47:52;101243.69;;;6.32;63.31
13869;BME280;7004;48.206;16.402;2023-02-15T11:50:31;101235.50;;;6.05;64.35
13869;BME280;7004;48.206;16.402;2023-02-15T11:53:06;101237.09;;;6.12;63.44
13869;BME280;7004;48.206;16.402;2023-02-15T11:55:35;101240.13;;;6.34;62.47
13869;BME280;7004;48.206;16.402;2023-02-15T11:58:32;101235.25;;;6.16;63.61
13869;BME280;7004;48.206;16.402;2023-02-15T12:01:32;101233.53;;;6.15;64.17
13869;BME280;7004;48.206;16.402;2023-02-15T12:04:24;101233.47;;;5.73;65.57
13869;BME280;7004;48.206;16.402;2023-02-15T12:07:32;101226.19;;;6.70;62.79
13869;BME280;7004;48.206;16.402;2023-02-15T12:10:42;101225.50;;;6.23;65.34
13869;BME280;7004;48.206;16.402;2023-02-15T12:13:20;101226.53;;;6.16;64.75
13869;BME280;7004;48.206;16.402;2023-02-15T12:15:57;101235.22;;;5.74;66.19
13869;BME280;7004;48.206;16.402;2023-02-15T12:18:38;101227.72;;;5.99;64.93
13869;BME280;7004;48.206;16.402;2023-02-15T12:21:39;101216.78;;;5.77;66.41
13869;BME280;7004;48.206;16.402;2023-02-15T12:27:04;101210.75;;;5.72;65.88
13869;BME280;7004;48.206;16.402;2023-02-15T12:29:40;101200.78;;;5.89;64.94
13869;BME280;7004;48.206;16.402;2023-02-15T12:32:24;101204.84;;;6.82;62.34
13869;BME280;7004;48.206;16.402;2023-02-15T12:34:54;101199.53;;;6.48;63.10
13869;BME280;7004;48.206;16.402;2023-02-15T12:37:27;101200.13;;;6.22;64.89
13869;BME280;7004;48.206;16.402;2023-02-15T12:39:59;101205.09;;;5.94;65.16
13869;BME280;7004;48.206;16.402;2023-02-15T12:42:40;101202.03;;;6.15;65.65
13869;BME280;7004;48.206;16.402;2023-02-15T12:45:29;101200.13;;;6.22;65.53
13869;BME280;7004;48.206;16.402;2023-02-15T12:50:39;101196.47;;;6.29;64.56
13869;BME280;7004;48.206;16.402;2023-02-15T12:53:35;101184.41;;;6.59;63.20
13869;BME280;7004;48.206;16.402;2023-02-15T12:56:08;101185.50;;;5.66;66.39
13869;BME280;7004;48.206;16.402;2023-02-15T12:58:40;101184.53;;;6.53;63.58
13869;BME280;7004;48.206;16.402;2023-02-15T13:01:16;101173.84;;;5.81;65.45
13869;BME280;7004;48.206;16.402;2023-02-15T13:04:05;101171.31;;;6.92;61.95
13869;BME280;7004;48.206;16.402;2023-02-15T13:06:34;101170.03;;;6.74;61.42
13869;BME280;7004;48.206;16.402;2023-02-15T13:09:53;101170.75;;;6.43;62.91
13869;BME280;7004;48.206;16.402;2023-02-15T13:12:27;101164.84;;;6.71;62.23
13869;BME280;7004;48.206;16.402;2023-02-15T13:14:57;101159.38;;;6.80;62.12
13869;BME280;7004;48.206;16.402;2023-02-15T13:17:32;101158.69;;;6.36;63.01
13869;BME280;7004;48.206;16.402;2023-02-15T13:20:18;101152.81;;;6.96;61.30
13869;BME280;7004;48.206;16.402;2023-02-15T13:22:46;101152.75;;;6.64;63.05
13869;BME280;7004;48.206;16.402;2023-02-15T13:25:29;101157.53;;;6.09;65.38
13869;BME280;7004;48.206;16.402;2023-02-15T13:28:02;101152.63;;;5.90;65.69
13869;BME280;7004;48.206;16.402;2023-02-15T13:30:36;101146.78;;;6.93;62.63
13869;BME280;7004;48.206;16.402;2023-02-15T13:33:09;101146.59;;;7.00;62.56
13869;BME280;7004;48.206;16.402;2023-02-15T13:36:02;101142.69;;;7.47;60.71
13869;BME280;7004;48.206;16.402;2023-02-15T13:41:56;101139.69;;;6.95;61.32
13869;BME280;7004;48.206;16.402;2023-02-15T13:45:16;101139.56;;;7.95;58.86
13869;BME280;7004;48.206;16.402;2023-02-15T13:48:28;101131.03;;;7.86;58.87
13869;BME280;7004;48.206;16.402;2023-02-15T13:51:29;101135.34;;;7.89;58.37
13869;BME280;7004;48.206;16.402;2023-02-15T13:57:33;101131.38;;;8.60;55.82
13869;BME280;7004;48.206;16.402;2023-02-15T14:00:22;101135.47;;;7.84;58.67
13869;BME280;7004;48.206;16.402;2023-02-15T14:04:15;101126.06;;;8.62;56.14
13869;BME280;7004;48.206;16.402;2023-02-15T14:09:24;101121.41;;;8.43;56.32
13869;BME280;7004;48.206;16.402;2023-02-15T14:26:14;101113.00;;;7.43;59.40
13869;BME280;7004;48.206;16.402;2023-02-15T14:31:34;101107.38;;;7.55;59.72
13869;BME280;7004;48.206;16.402;2023-02-15T14:34:01;101108.44;;;7.79;59.49
13869;BME280;7004;48.206;16.402;2023-02-15T14:36:28;101100.34;;;7.85;57.93
13869;BME280;7004;48.206;16.402;2023-02-15T14:42:30;101103.44;;;7.98;58.51
13869;BME280;7004;48.206;16.402;2023-02-15T14:45:32;101093.78;;;7.99;58.97
13869;BME280;7004;48.206;16.402;2023-02-15T14:48:11;101093.41;;;8.11;58.41
13869;BME280;7004;48.206;16.402;2023-02-15T14:50:43;101097.84;;;7.20;61.10
13869;BME280;7004;48.206;16.402;2023-02-15T14:53:54;101095.44;;;7.43;62.08
13869;BME280;7004;48.206;16.402;2023-02-15T14:56:22;101092.34;;;7.59;61.39
13869;BME280;7004;48.206;16.402;2023-02-15T15:01:27;101103.38;;;6.76;63.87
13869;BME280;7004;48.206;16.402;2023-02-15T15:03:58;101094.25;;;7.24;62.44
13869;BME280;7004;48.206;16.402;2023-02-15T15:06:32;101092.38;;;6.95;63.49
13869;BME280;7004;48.206;16.402;2023-02-15T15:11:50;101085.66;;;7.17;63.37
13869;BME280;7004;48.206;16.402;2023-02-15T15:17:00;101083.16;;;6.80;65.05
13869;BME280;7004;48.206;16.402;2023-02-15T15:22:23;101079.41;;;6.89;64.60
13869;BME280;7004;48.206;16.402;2023-02-15T15:27:57;101079.59;;;6.83;64.48
13869;BME280;7004;48.206;16.402;2023-02-15T15:50:45;101083.44;;;5.96;69.58
13869;BME280;7004;48.206;16.402;2023-02-15T15:53:20;101076.59;;;6.28;68.46
13869;BME280;7004;48.206;16.402;2023-02-15T15:55:50;101080.94;;;6.27;68.17
13869;BME280;7004;48.206;16.402;2023-02-15T15:58:19;101074.19;;;6.17;68.92
13869;BME280;7004;48.206;16.402;2023-02-15T16:01:09;101072.00;;;6.70;67.84
13869;BME280;7004;48.206;16.402;2023-02-15T16:03:37;101063.97;;;6.42;68.57
13869;BME280;7004;48.206;16.402;2023-02-15T16:06:03;101064.59;;;6.52;67.67
13869;BME280;7004;48.206;16.402;2023-02-15T16:08:37;101070.25;;;6.35;68.06
13869;BME280;7004;48.206;16.402;2023-02-15T16:11:27;101076.59;;;5.87;69.75
13869;BME280;7004;48.206;16.402;2023-02-15T16:13:55;101070.63;;;5.81;70.31
13869;BME280;7004;48.206;16.402;2023-02-15T16:16:28;101068.00;;;5.81;70.38
13869;BME280;7004;48.206;16.402;2023-02-15T16:18:58;101069.47;;;5.54;70.51
13869;BME280;7004;48.206;16.402;2023-02-15T16:21:35;101079.22;;;5.03;73.47